Terminal Aerodrome Forecast
Issued by NWS

Home | Current Version | Previous Version | Graphics & Text | Print | Product List | Glossary On
Versions: 1 2 3 4 5 6 7 8 9 10 11 12
000
FTUS43 KFGF 222300
TAFBJI
TAF
KBJI 222320Z 2300/2324 18010KT P6SM BKN040
      TEMPO 2300/2302 -RA
     FM230400 20005KT P6SM SCT040
      TEMPO 2308/2312 2SM BR
     FM231500 23008KT P6SM SKC=

USA.gov is the U.S. government's official web portal to all federal, state and local government web resources and services.